Time;durP1;ratioP1;P1;durP2;ratioP2;P2;SDS_P1;SDS_P2;PMS_P1;PMS_P2;Temp;Humidity;BMP_temperature;BMP_pressure;BME280_temperature;BME280_humidity;BME280_pressure;Samples;Min_cycle;Max_cycle;Signal;HPM_P1;HPM_P2
2021/04/26 05:37:32;;;;;;;21.20;14.98;;;;;;;;;;4888439;29;20052;-65
2021/04/26 05:39:59;;;;;;;24.55;16.60;;;;;;;;;;4879084;29;20565;-63
2021/04/26 05:42:25;;;;;;;24.63;16.85;;;;;;;;;;4892530;29;20041;-64
2021/04/26 05:44:51;;;;;;;22.83;15.75;;;;;;;;;;4889208;29;20036;-64
2021/04/26 05:47:17;;;;;;;23.92;16.08;;;;;;;;;;4878598;29;20511;-67
2021/04/26 05:49:43;;;;;;;26.73;16.83;;;;;;;;;;4878350;29;20453;-66
2021/04/26 05:52:09;;;;;;;23.58;17.58;;;;;;;;;;4878826;29;20115;-65
2021/04/26 05:54:35;;;;;;;24.05;16.45;;;;;;;;;;4878258;29;20040;-66
2021/04/26 05:57:01;;;;;;;23.67;15.80;;;;;;;;;;4878360;29;20032;-67
2021/04/26 05:59:27;;;;;;;24.83;15.77;;;;;;;;;;4878063;29;20041;-68
2021/04/26 06:01:53;;;;;;;27.50;17.42;;;;;;;;;;4878660;29;20381;-69
2021/04/26 06:04:20;;;;;;;27.00;17.77;;;;;;;;;;4878297;29;20085;-64
2021/04/26 06:06:46;;;;;;;24.55;17.08;;;;;;;;;;4892284;29;20472;-65
2021/04/26 06:09:12;;;;;;;24.92;16.42;;;;;;;;;;4877897;29;20037;-67
2021/04/26 06:11:38;;;;;;;26.88;16.80;;;;;;;;;;4885412;29;20089;-66
2021/04/26 06:14:04;;;;;;;27.52;18.13;;;;;;;;;;4896870;29;20036;-66
2021/04/26 06:16:30;;;;;;;25.52;16.45;;;;;;;;;;4879941;29;20475;-67
2021/04/26 06:18:56;;;;;;;24.55;17.38;;;;;;;;;;4896842;29;20079;-69
2021/04/26 06:21:22;;;;;;;25.92;17.58;;;;;;;;;;4895918;29;20043;-69
2021/04/26 06:23:48;;;;;;;24.85;17.08;;;;;;;;;;4895557;29;20060;-69
2021/04/26 06:26:15;;;;;;;26.35;17.00;;;;;;;;;;4897085;29;20500;-69
2021/04/26 06:28:41;;;;;;;27.10;16.85;;;;;;;;;;4879658;29;20033;-68
2021/04/26 06:31:07;;;;;;;28.55;17.80;;;;;;;;;;4895678;29;20060;-69
2021/04/26 06:33:33;;;;;;;27.50;17.38;;;;;;;;;;4893936;29;20043;-66
2021/04/26 06:35:59;;;;;;;22.10;16.25;;;;;;;;;;4895953;29;20068;-69
2021/04/26 06:38:25;;;;;;;24.38;15.95;;;;;;;;;;4896447;29;20032;-68
2021/04/26 06:40:51;;;;;;;23.38;16.08;;;;;;;;;;4896458;29;20048;-68
2021/04/26 06:43:17;;;;;;;22.38;15.80;;;;;;;;;;4896697;29;20024;-68
2021/04/26 06:45:44;;;;;;;23.10;16.00;;;;;;;;;;4896669;29;20024;-68
2021/04/26 06:48:13;;;;;;;21.67;15.48;;;;;;;;;;4896513;29;20493;-68
2021/04/26 06:50:39;;;;;;;25.33;15.18;;;;;;;;;;4896018;29;20033;-66
2021/04/26 06:53:05;;;;;;;19.80;14.90;;;;;;;;;;4896346;29;20477;-68
2021/04/26 06:55:32;;;;;;;25.02;16.40;;;;;;;;;;4895108;29;20028;-68
2021/04/26 06:57:58;;;;;;;25.77;16.25;;;;;;;;;;4878977;29;20392;-69
2021/04/26 07:00:26;;;;;;;24.63;15.27;;;;;;;;;;4895895;29;20040;-69
2021/04/26 07:02:52;;;;;;;23.80;15.73;;;;;;;;;;4895513;29;20043;-68
2021/04/26 07:05:19;;;;;;;23.02;14.65;;;;;;;;;;4896348;29;20477;-69
2021/04/26 07:07:45;;;;;;;23.38;14.82;;;;;;;;;;4896173;29;20111;-68
2021/04/26 07:10:12;;;;;;;24.67;15.40;;;;;;;;;;4896116;29;20042;-69
2021/04/26 07:12:38;;;;;;;21.48;14.75;;;;;;;;;;4896208;29;20029;-70
2021/04/26 07:15:08;;;;;;;24.70;14.88;;;;;;;;;;4895921;29;20056;-70
2021/04/26 07:17:34;;;;;;;24.30;16.85;;;;;;;;;;4885507;29;20037;-69
2021/04/26 07:20:01;;;;;;;29.13;19.42;;;;;;;;;;4876951;29;20050;-66
2021/04/26 07:22:27;;;;;;;26.48;18.83;;;;;;;;;;4876396;29;20028;-68
2021/04/26 07:24:54;;;;;;;26.00;14.82;;;;;;;;;;4873357;29;20052;-68
2021/04/26 07:27:20;;;;;;;21.15;15.25;;;;;;;;;;4875956;29;20029;-70
2021/04/26 07:29:46;;;;;;;23.02;16.00;;;;;;;;;;4876199;29;20104;-69
2021/04/26 07:32:12;;;;;;;25.48;16.50;;;;;;;;;;4875848;29;20040;-71
2021/04/26 07:34:38;;;;;;;22.77;15.02;;;;;;;;;;4875488;29;20397;-68
2021/04/26 07:37:04;;;;;;;21.73;15.07;;;;;;;;;;4875472;29;20528;-68
2021/04/26 07:39:31;;;;;;;24.63;14.63;;;;;;;;;;4875766;29;20045;-68
2021/04/26 07:42:00;;;;;;;22.17;14.35;;;;;;;;;;4858811;29;20025;-67
2021/04/26 07:44:26;;;;;;;25.27;15.27;;;;;;;;;;4874755;29;20036;-63
2021/04/26 07:46:53;;;;;;;24.80;14.63;;;;;;;;;;4875680;29;20112;-64
2021/04/26 07:49:19;;;;;;;24.23;14.10;;;;;;;;;;4876898;29;20449;-68
2021/04/26 07:51:45;;;;;;;21.38;13.65;;;;;;;;;;4860005;29;20036;-64
2021/04/26 07:54:12;;;;;;;20.65;14.40;;;;;;;;;;4859643;29;20029;-63
2021/04/26 07:56:38;;;;;;;21.35;14.00;;;;;;;;;;4876469;29;20081;-65
2021/04/26 07:59:04;;;;;;;23.75;16.23;;;;;;;;;;4876885;29;20040;-66
2021/04/26 08:01:30;;;;;;;20.65;14.50;;;;;;;;;;4877029;29;20048;-63
2021/04/26 08:03:56;;;;;;;26.08;14.18;;;;;;;;;;4876811;29;20033;-65
2021/04/26 08:06:22;;;;;;;19.90;12.60;;;;;;;;;;4876392;29;20080;-63
2021/04/26 08:08:48;;;;;;;20.98;13.63;;;;;;;;;;4877140;29;20506;-66
2021/04/26 08:11:15;;;;;;;19.58;13.35;;;;;;;;;;4876502;29;20033;-64
2021/04/26 08:13:41;;;;;;;23.52;13.10;;;;;;;;;;4876904;29;20032;-65
2021/04/26 08:16:07;;;;;;;21.25;14.82;;;;;;;;;;4860249;29;20089;-67
2021/04/26 08:18:33;;;;;;;20.10;13.52;;;;;;;;;;4876978;29;20029;-66
2021/04/26 08:20:59;;;;;;;20.77;12.75;;;;;;;;;;4876116;29;20048;-66
2021/04/26 08:23:25;;;;;;;19.95;11.90;;;;;;;;;;4858949;29;20485;-67
2021/04/26 08:25:51;;;;;;;19.85;12.70;;;;;;;;;;4876784;29;20494;-69
2021/04/26 08:28:19;;;;;;;22.77;12.80;;;;;;;;;;4876586;29;20059;-65
2021/04/26 08:30:46;;;;;;;15.77;9.88;;;;;;;;;;4877021;29;20074;-65
2021/04/26 08:33:12;;;;;;;16.42;10.95;;;;;;;;;;4876762;29;20049;-67
2021/04/26 08:35:38;;;;;;;17.67;10.85;;;;;;;;;;4876188;29;20049;-70
2021/04/26 08:38:04;;;;;;;16.30;10.00;;;;;;;;;;4875969;29;20049;-66
2021/04/26 08:40:30;;;;;;;16.92;10.43;;;;;;;;;;4876230;29;20092;-65
2021/04/26 08:43:01;;;;;;;15.55;10.38;;;;;;;;;;4876479;29;20025;-62
2021/04/26 08:45:27;;;;;;;14.48;9.60;;;;;;;;;;4877753;29;20128;-67
2021/04/26 08:47:53;;;;;;;13.75;9.30;;;;;;;;;;4879662;29;20032;-63
2021/04/26 08:50:19;;;;;;;14.63;9.90;;;;;;;;;;4879538;29;20220;-65
2021/04/26 08:52:46;;;;;;;17.35;9.85;;;;;;;;;;4879287;29;20028;-66
2021/04/26 08:55:12;;;;;;;16.23;10.43;;;;;;;;;;4879874;29;20081;-64
2021/04/26 08:57:38;;;;;;;19.13;11.13;;;;;;;;;;4880094;29;20117;-64
2021/04/26 09:00:05;;;;;;;16.80;9.52;;;;;;;;;;4880131;29;20565;-66
2021/04/26 09:02:42;;;;;;;14.23;9.55;;;;;;;;;;4879634;29;20044;-65
2021/04/26 09:05:09;;;;;;;16.67;10.32;;;;;;;;;;4879241;29;20241;-67
2021/04/26 09:07:35;;;;;;;15.55;9.30;;;;;;;;;;4879354;29;20029;-66
2021/04/26 09:10:01;;;;;;;11.93;8.73;;;;;;;;;;4862114;29;20111;-70
2021/04/26 09:12:28;;;;;;;12.35;8.45;;;;;;;;;;4878986;29;20033;-65
2021/04/26 09:15:02;;;;;;;15.55;9.40;;;;;;;;;;4879549;29;20106;-66
2021/04/26 09:17:39;;;;;;;14.65;8.80;;;;;;;;;;4879498;29;20065;-65
2021/04/26 09:20:17;;;;;;;15.48;9.25;;;;;;;;;;4879251;29;20039;-68
2021/04/26 09:22:43;;;;;;;14.32;8.75;;;;;;;;;;4878997;29;20087;-66
2021/04/26 09:25:28;;;;;;;13.73;8.85;;;;;;;;;;4879133;29;20029;-64
2021/04/26 09:28:03;;;;;;;15.27;8.15;;;;;;;;;;4879052;29;20493;-65
2021/04/26 09:30:41;;;;;;;13.32;8.15;;;;;;;;;;4879162;29;20037;-68
2021/04/26 09:33:26;;;;;;;12.70;8.25;;;;;;;;;;4879254;29;20040;-64
2021/04/26 09:35:58;;;;;;;13.60;7.85;;;;;;;;;;4879089;29;20082;-67
2021/04/26 09:38:43;;;;;;;13.85;7.60;;;;;;;;;;4879064;29;20104;-65
2021/04/26 09:41:11;;;;;;;11.90;7.40;;;;;;;;;;4878986;29;20044;-70
2021/04/26 09:43:37;;;;;;;11.23;8.05;;;;;;;;;;4878591;29;20029;-70
2021/04/26 09:46:04;;;;;;;15.40;8.32;;;;;;;;;;4861882;29;20037;-65
2021/04/26 09:48:32;;;;;;;13.75;7.68;;;;;;;;;;4878142;29;20029;-65
2021/04/26 09:50:59;;;;;;;11.95;8.10;;;;;;;;;;4878084;29;20032;-65
2021/04/26 09:53:26;;;;;;;11.70;7.97;;;;;;;;;;4877815;29;20161;-70
2021/04/26 09:55:54;;;;;;;15.18;7.93;;;;;;;;;;4876886;29;20025;-65
2021/04/26 09:58:20;;;;;;;14.07;8.13;;;;;;;;;;4878728;29;20516;-70
2021/04/26 10:00:47;;;;;;;12.43;7.35;;;;;;;;;;4877315;29;20406;-65
2021/04/26 10:03:16;;;;;;;12.20;7.43;;;;;;;;;;4873941;29;20039;-65
2021/04/26 10:05:43;;;;;;;10.75;7.25;;;;;;;;;;4874987;29;20029;-70
2021/04/26 10:08:11;;;;;;;13.00;8.02;;;;;;;;;;4877908;29;20069;-67
2021/04/26 10:10:38;;;;;;;15.50;8.27;;;;;;;;;;4878145;29;20037;-67
2021/04/26 10:13:04;;;;;;;14.38;7.95;;;;;;;;;;4877843;29;20393;-70
2021/04/26 10:15:30;;;;;;;14.02;7.63;;;;;;;;;;4878208;29;20388;-66
2021/04/26 10:17:58;;;;;;;12.40;7.20;;;;;;;;;;4878303;29;20021;-66
2021/04/26 10:20:34;;;;;;;11.02;7.22;;;;;;;;;;4877975;29;20120;-69
2021/04/26 10:23:00;;;;;;;13.25;8.52;;;;;;;;;;4877414;29;20021;-67
2021/04/26 10:25:40;;;;;;;16.60;7.70;;;;;;;;;;4877481;29;20029;-68
2021/04/26 10:28:24;;;;;;;13.77;7.90;;;;;;;;;;4877487;29;20092;-65
2021/04/26 10:30:57;;;;;;;11.27;7.28;;;;;;;;;;4874921;29;20176;-65
2021/04/26 10:33:23;;;;;;;13.00;7.38;;;;;;;;;;4877706;29;20085;-66
2021/04/26 10:35:51;;;;;;;10.85;7.00;;;;;;;;;;4876758;29;20048;-70
2021/04/26 10:38:40;;;;;;;11.20;6.80;;;;;;;;;;4861176;29;20045;-71
2021/04/26 10:41:07;;;;;;;9.80;6.35;;;;;;;;;;4877233;29;20037;-65
2021/04/26 10:43:33;;;;;;;12.48;6.70;;;;;;;;;;4877698;29;20040;-65
2021/04/26 10:46:14;;;;;;;10.57;6.82;;;;;;;;;;4876754;29;20088;-66
2021/04/26 10:48:59;;;;;;;9.43;6.45;;;;;;;;;;4872797;29;20044;-62
2021/04/26 10:51:25;;;;;;;12.00;6.38;;;;;;;;;;4874753;29;20040;-69
2021/04/26 10:53:51;;;;;;;10.75;6.15;;;;;;;;;;4876342;29;20018;-65
2021/04/26 10:56:26;;;;;;;10.90;5.90;;;;;;;;;;4877399;29;20033;-66
2021/04/26 10:59:12;;;;;;;10.80;6.00;;;;;;;;;;4876774;29;20032;-65
2021/04/26 11:01:46;;;;;;;11.15;6.20;;;;;;;;;;4875740;29;20144;-70
2021/04/26 11:04:12;;;;;;;11.73;6.50;;;;;;;;;;4874523;29;20110;-68
2021/04/26 11:06:38;;;;;;;8.90;5.68;;;;;;;;;;4876378;29;20119;-65
2021/04/26 11:09:09;;;;;;;12.93;6.90;;;;;;;;;;4877362;29;20033;-67
2021/04/26 11:11:44;;;;;;;10.15;5.80;;;;;;;;;;4876648;29;20123;-67
2021/04/26 11:14:19;;;;;;;11.27;6.13;;;;;;;;;;4877132;29;20033;-69
2021/04/26 11:16:53;;;;;;;10.02;5.88;;;;;;;;;;4876560;29;20040;-68
2021/04/26 11:19:19;;;;;;;9.10;5.40;;;;;;;;;;4859460;29;20041;-68
2021/04/26 11:21:48;;;;;;;11.15;5.53;;;;;;;;;;4879041;29;20164;-67
2021/04/26 11:24:26;;;;;;;10.48;5.70;;;;;;;;;;4877075;29;20052;-67
2021/04/26 11:27:11;;;;;;;8.48;5.32;;;;;;;;;;4874925;29;20025;-66
2021/04/26 11:29:44;;;;;;;10.90;6.32;;;;;;;;;;4876026;29;20105;-66
2021/04/26 11:32:11;;;;;;;10.30;5.50;;;;;;;;;;4875213;29;20120;-69
2021/04/26 11:35:00;;;;;;;9.65;5.43;;;;;;;;;;4876987;29;20037;-68
2021/04/26 11:37:30;;;;;;;11.10;5.72;;;;;;;;;;4818042;29;20085;-68
2021/04/26 11:39:56;;;;;;;10.20;5.95;;;;;;;;;;4818305;29;20051;-67
2021/04/26 11:42:27;;;;;;;9.90;5.93;;;;;;;;;;4818525;29;20046;-68
2021/04/26 11:44:54;;;;;;;10.18;5.47;;;;;;;;;;4819118;29;20635;-65
2021/04/26 11:47:21;;;;;;;8.70;5.68;;;;;;;;;;4819081;29;20035;-68
2021/04/26 11:49:48;;;;;;;10.10;6.38;;;;;;;;;;4818712;29;20039;-65
2021/04/26 11:52:16;;;;;;;21.60;12.52;;;;;;;;;;4818568;29;20439;-66
2021/04/26 11:54:45;;;;;;;13.93;7.18;;;;;;;;;;4818872;29;20050;-67
2021/04/26 11:57:16;;;;;;;11.90;6.32;;;;;;;;;;4818505;29;20061;-69
2021/04/26 11:59:52;;;;;;;14.90;6.25;;;;;;;;;;4818390;29;20682;-66
2021/04/26 12:02:29;;;;;;;12.30;5.88;;;;;;;;;;4818767;29;20053;-68
2021/04/26 12:04:57;;;;;;;13.70;6.10;;;;;;;;;;4816836;29;20045;-72
2021/04/26 12:07:23;;;;;;;11.18;6.30;;;;;;;;;;4817367;29;20083;-66
2021/04/26 12:09:53;;;;;;;11.20;6.75;;;;;;;;;;4998072;23;20058;-65
2021/04/26 12:12:23;;;;;;;12.18;6.22;;;;;;;;;;4891592;29;20100;-71
2021/04/26 12:14:56;;;;;;;8.73;5.72;;;;;;;;;;4909515;29;20040;-63
2021/04/26 12:17:31;;;;;;;15.75;8.15;;;;;;;;;;4913909;29;20050;-77
2021/04/26 12:19:59;;;;;;;10.90;6.25;;;;;;;;;;4921818;29;20074;-71
2021/04/26 12:22:26;;;;;;;10.20;6.35;;;;;;;;;;4935858;29;20039;-66
2021/04/26 12:24:53;;;;;;;10.68;6.25;;;;;;;;;;4919119;29;20488;-71
2021/04/26 12:27:20;;;;;;;12.55;7.32;;;;;;;;;;4918732;29;20032;-73
2021/04/26 12:29:47;;;;;;;12.65;6.28;;;;;;;;;;4936389;29;20036;-74
2021/04/26 12:32:13;;;;;;;12.25;6.47;;;;;;;;;;4932953;29;20044;-66
2021/04/26 12:34:48;;;;;;;10.40;6.70;;;;;;;;;;4925057;29;20015;-70
2021/04/26 12:37:14;;;;;;;13.18;7.05;;;;;;;;;;4925125;29;20506;-74
2021/04/26 12:39:40;;;;;;;11.85;7.60;;;;;;;;;;4907368;29;20043;-75
2021/04/26 12:42:14;;;;;;;12.13;6.60;;;;;;;;;;4935959;29;20032;-74
2021/04/26 12:44:40;;;;;;;12.35;6.53;;;;;;;;;;4936382;29;20024;-70
2021/04/26 12:47:20;;;;;;;10.35;6.78;;;;;;;;;;4935396;29;20039;-67
2021/04/26 12:49:47;;;;;;;11.02;6.55;;;;;;;;;;4933354;29;20024;-69
2021/04/26 12:52:14;;;;;;;9.07;6.07;;;;;;;;;;4910637;29;20038;-77
2021/04/26 12:55:19;;;;;;;12.80;7.28;;;;;;;;;;4924169;29;20036;-76
2021/04/26 12:57:45;;;;;;;14.23;8.38;;;;;;;;;;4886727;29;20077;-79
2021/04/26 13:00:12;;;;;;;10.23;6.35;;;;;;;;;;4885932;29;20045;-88
2021/04/26 13:02:38;;;;;;;15.77;6.65;;;;;;;;;;4885400;29;20025;-85
2021/04/26 13:05:04;;;;;;;11.32;6.35;;;;;;;;;;4886500;29;20105;-87
2021/04/26 13:07:31;;;;;;;9.57;6.20;;;;;;;;;;4884957;29;20033;-87
2021/04/26 13:10:10;;;;;;;12.43;6.63;;;;;;;;;;4887356;29;20056;-86
2021/04/26 13:12:36;;;;;;;11.20;6.03;;;;;;;;;;4872112;29;20147;-83
2021/04/26 13:15:22;;;;;;;10.05;6.20;;;;;;;;;;4886537;29;20055;-75
2021/04/26 13:17:48;;;;;;;9.38;6.30;;;;;;;;;;4886248;29;20033;-82
2021/04/26 13:20:21;;;;;;;10.73;6.15;;;;;;;;;;4869851;29;20033;-82
2021/04/26 13:22:47;;;;;;;12.02;6.50;;;;;;;;;;4885138;29;20045;-82
2021/04/26 13:25:13;;;;;;;12.75;6.50;;;;;;;;;;4888960;29;20111;-83
2021/04/26 13:27:48;;;;;;;10.27;6.00;;;;;;;;;;4890151;29;20039;-60
2021/04/26 13:30:17;;;;;;;15.98;6.53;;;;;;;;;;4907842;29;20076;-76
2021/04/26 13:32:43;;;;;;;9.82;5.63;;;;;;;;;;4906951;29;20064;-84
2021/04/26 13:35:10;;;;;;;10.88;5.88;;;;;;;;;;4906959;29;20035;-65
2021/04/26 13:37:36;;;;;;;9.43;6.10;;;;;;;;;;4905365;29;20044;-85
2021/04/26 13:40:03;;;;;;;10.60;6.25;;;;;;;;;;4904352;29;20056;-84
2021/04/26 13:42:29;;;;;;;11.00;6.07;;;;;;;;;;4906109;29;20441;-83
2021/04/26 13:44:56;;;;;;;10.02;5.88;;;;;;;;;;4906652;29;20039;-78
2021/04/26 13:47:22;;;;;;;15.05;6.25;;;;;;;;;;4905810;29;20103;-84
2021/04/26 13:49:50;;;;;;;12.40;6.28;;;;;;;;;;4906464;29;20076;-84
2021/04/26 13:52:16;;;;;;;9.35;6.03;;;;;;;;;;4905900;29;20103;-88
2021/04/26 13:54:42;;;;;;;10.43;5.47;;;;;;;;;;4905394;29;20054;-71
2021/04/26 13:57:08;;;;;;;9.68;5.47;;;;;;;;;;4904126;29;20040;-73
2021/04/26 13:59:34;;;;;;;11.07;5.65;;;;;;;;;;4904136;29;20408;-68
2021/04/26 14:02:01;;;;;;;13.02;6.65;;;;;;;;;;4906316;29;20134;-74
2021/04/26 14:04:27;;;;;;;10.60;6.05;;;;;;;;;;4905575;29;20031;-63
2021/04/26 14:06:53;;;;;;;10.93;5.40;;;;;;;;;;4906592;29;20056;-74
2021/04/26 14:09:19;;;;;;;9.07;5.40;;;;;;;;;;4905525;29;20540;-77
2021/04/26 14:11:46;;;;;;;11.40;5.97;;;;;;;;;;4907709;29;20044;-83
2021/04/26 14:14:13;;;;;;;11.63;5.57;;;;;;;;;;4905181;29;20111;-88
2021/04/26 14:16:40;;;;;;;9.65;5.72;;;;;;;;;;4906089;29;20039;-83
2021/04/26 14:19:06;;;;;;;6.03;4.57;;;;;;;;;;4906534;29;20027;-72
2021/04/26 14:21:32;;;;;;;8.98;5.70;;;;;;;;;;4906471;29;20036;-77
2021/04/26 14:23:58;;;;;;;13.48;5.10;;;;;;;;;;4904060;29;20124;-73
2021/04/26 14:26:24;;;;;;;8.75;5.30;;;;;;;;;;4907139;29;20097;-78
2021/04/26 14:28:50;;;;;;;16.02;7.07;;;;;;;;;;4905397;29;20055;-77
2021/04/26 14:31:16;;;;;;;16.23;8.13;;;;;;;;;;4909203;29;20039;-63
2021/04/26 14:33:43;;;;;;;9.48;5.10;;;;;;;;;;4906145;29;20026;-76
2021/04/26 14:36:09;;;;;;;10.10;5.57;;;;;;;;;;4907500;29;20029;-73
2021/04/26 14:38:35;;;;;;;11.88;5.50;;;;;;;;;;4907416;29;20392;-80
2021/04/26 14:41:01;;;;;;;10.07;5.40;;;;;;;;;;4907534;29;20032;-74
2021/04/26 14:43:27;;;;;;;9.55;5.38;;;;;;;;;;4906980;29;20449;-75
2021/04/26 14:45:53;;;;;;;10.40;5.35;;;;;;;;;;4906765;29;20107;-73
2021/04/26 14:48:19;;;;;;;12.00;4.68;;;;;;;;;;4903792;29;20039;-75
2021/04/26 14:50:45;;;;;;;11.95;4.80;;;;;;;;;;4906994;29;20155;-76
2021/04/26 14:53:11;;;;;;;8.98;5.32;;;;;;;;;;4902596;29;20024;-74
2021/04/26 14:55:37;;;;;;;12.93;6.95;;;;;;;;;;4908221;29;20032;-74
2021/04/26 14:58:04;;;;;;;10.18;5.65;;;;;;;;;;4912852;29;20031;-74
2021/04/26 15:00:30;;;;;;;12.85;6.60;;;;;;;;;;4912651;29;20036;-71
2021/04/26 15:02:56;;;;;;;7.13;4.93;;;;;;;;;;4912835;29;20017;-75
2021/04/26 15:05:22;;;;;;;10.40;4.90;;;;;;;;;;4913277;29;20055;-74
2021/04/26 15:07:48;;;;;;;8.80;4.70;;;;;;;;;;4912863;29;20020;-74
2021/04/26 15:10:15;;;;;;;7.88;4.97;;;;;;;;;;4910511;29;20075;-72
2021/04/26 15:12:41;;;;;;;10.07;4.90;;;;;;;;;;4911704;29;20516;-71
2021/04/26 15:15:09;;;;;;;8.93;4.65;;;;;;;;;;4908307;29;20036;-68
2021/04/26 15:17:36;;;;;;;8.07;4.90;;;;;;;;;;4908101;29;20166;-68
2021/04/26 15:20:03;;;;;;;11.23;4.97;;;;;;;;;;4895527;29;20181;-74
2021/04/26 15:22:29;;;;;;;10.25;4.53;;;;;;;;;;4900807;29;20037;-74
2021/04/26 15:24:55;;;;;;;8.35;5.38;;;;;;;;;;4903518;29;20028;-71
2021/04/26 15:27:21;;;;;;;7.30;4.10;;;;;;;;;;4901049;29;20119;-68
2021/04/26 15:29:47;;;;;;;7.68;4.30;;;;;;;;;;4904310;29;20493;-66
2021/04/26 15:32:13;;;;;;;10.52;5.65;;;;;;;;;;4902743;29;20040;-76
2021/04/26 15:34:41;;;;;;;12.80;4.88;;;;;;;;;;4901119;29;20059;-76
2021/04/26 15:37:07;;;;;;;6.80;3.90;;;;;;;;;;4904385;29;20048;-74
2021/04/26 15:39:34;;;;;;;8.40;3.72;;;;;;;;;;4904861;29;20044;-75
2021/04/26 15:42:00;;;;;;;9.90;4.95;;;;;;;;;;4903193;29;20033;-79
2021/04/26 15:44:26;;;;;;;9.27;4.60;;;;;;;;;;4903196;29;20027;-65
2021/04/26 15:46:53;;;;;;;9.82;4.95;;;;;;;;;;4902651;29;20559;-75
2021/04/26 15:49:19;;;;;;;15.40;6.40;;;;;;;;;;4896626;29;20055;-75
2021/04/26 15:51:45;;;;;;;12.80;5.95;;;;;;;;;;4900985;29;20351;-77
2021/04/26 15:54:11;;;;;;;21.33;10.82;;;;;;;;;;4906478;29;20047;-82
2021/04/26 15:56:37;;;;;;;18.02;8.77;;;;;;;;;;4904599;29;20043;-76
2021/04/26 15:59:03;;;;;;;9.25;4.65;;;;;;;;;;4901594;29;20063;-80
2021/04/26 16:01:29;;;;;;;19.60;8.38;;;;;;;;;;4905724;29;20029;-68
2021/04/26 16:03:55;;;;;;;12.20;5.75;;;;;;;;;;4904638;29;20017;-63
2021/04/26 16:06:21;;;;;;;9.20;4.40;;;;;;;;;;4908463;29;20064;-78
2021/04/26 16:08:47;;;;;;;17.17;7.43;;;;;;;;;;4907042;29;20553;-74
2021/04/26 16:11:13;;;;;;;11.13;5.65;;;;;;;;;;4902911;29;20425;-71
2021/04/26 16:13:39;;;;;;;11.45;6.10;;;;;;;;;;4903483;29;20032;-79
2021/04/26 16:16:06;;;;;;;15.35;7.97;;;;;;;;;;4901209;29;20115;-75
2021/04/26 16:18:32;;;;;;;15.18;6.50;;;;;;;;;;4897978;29;20873;-66
2021/04/26 16:20:58;;;;;;;21.58;8.35;;;;;;;;;;4898507;29;20441;-75
2021/04/26 16:23:25;;;;;;;19.75;8.57;;;;;;;;;;4900962;29;20396;-81
2021/04/26 16:25:51;;;;;;;19.17;8.15;;;;;;;;;;4898855;29;20032;-80
2021/04/26 16:28:17;;;;;;;11.27;4.80;;;;;;;;;;4898141;29;20560;-82
2021/04/26 16:30:43;;;;;;;15.00;4.90;;;;;;;;;;4898707;29;20127;-82
2021/04/26 16:33:09;;;;;;;13.75;5.50;;;;;;;;;;4898490;29;20033;-67
2021/04/26 16:35:35;;;;;;;11.63;5.47;;;;;;;;;;4898256;29;20671;-69
2021/04/26 16:38:01;;;;;;;12.32;6.30;;;;;;;;;;4898647;29;20498;-74
2021/04/26 16:40:28;;;;;;;13.57;6.22;;;;;;;;;;4898237;29;20174;-76
2021/04/26 16:42:54;;;;;;;20.80;9.60;;;;;;;;;;4900832;29;20067;-77
2021/04/26 16:45:24;;;;;;;9.48;4.60;;;;;;;;;;4896728;29;20045;-82
2021/04/26 16:47:51;;;;;;;10.75;5.78;;;;;;;;;;4904293;29;20025;-76
2021/04/26 16:50:17;;;;;;;20.17;9.20;;;;;;;;;;4896216;29;20119;-69
2021/04/26 16:52:43;;;;;;;22.88;9.75;;;;;;;;;;4913077;29;20048;-73
2021/04/26 16:55:09;;;;;;;16.88;7.57;;;;;;;;;;4900768;29;20028;-71
2021/04/26 16:57:37;;;;;;;13.45;6.50;;;;;;;;;;4904541;29;20242;-75
2021/04/26 17:00:10;;;;;;;9.00;4.63;;;;;;;;;;4904320;29;20095;-86
2021/04/26 17:02:37;;;;;;;17.67;7.32;;;;;;;;;;4899915;29;20116;-73
2021/04/26 17:05:04;;;;;;;14.02;7.47;;;;;;;;;;4891168;29;20024;-74
2021/04/26 17:07:31;;;;;;;14.10;6.75;;;;;;;;;;4896480;29;20055;-81
2021/04/26 17:09:57;;;;;;;24.80;11.82;;;;;;;;;;4896591;29;20064;-79
2021/04/26 17:12:23;;;;;;;22.15;10.18;;;;;;;;;;4897277;29;20029;-79
2021/04/26 17:14:49;;;;;;;11.15;5.45;;;;;;;;;;4908243;29;20582;-65
2021/04/26 17:17:15;;;;;;;14.40;7.53;;;;;;;;;;4901874;29;20143;-74
2021/04/26 17:19:41;;;;;;;9.48;5.43;;;;;;;;;;4896387;29;20055;-84
2021/04/26 17:22:07;;;;;;;12.88;4.95;;;;;;;;;;4896230;29;20155;-74
2021/04/26 17:24:34;;;;;;;17.15;7.45;;;;;;;;;;4896457;29;20032;-71
2021/04/26 17:27:00;;;;;;;7.13;3.55;;;;;;;;;;4896517;29;20017;-71
2021/04/26 17:29:26;;;;;;;6.05;3.60;;;;;;;;;;4896614;29;20073;-74
2021/04/26 17:31:52;;;;;;;13.68;5.40;;;;;;;;;;4892594;29;20063;-63
2021/04/26 17:34:19;;;;;;;7.55;4.25;;;;;;;;;;4890956;29;20066;-71
2021/04/26 17:36:45;;;;;;;11.25;5.30;;;;;;;;;;4896763;29;20044;-77
2021/04/26 17:39:11;;;;;;;12.50;5.03;;;;;;;;;;4896438;29;20032;-74
2021/04/26 17:41:38;;;;;;;12.95;6.35;;;;;;;;;;4896720;29;20048;-72
2021/04/26 17:44:04;;;;;;;11.27;5.75;;;;;;;;;;4897174;29;20020;-80
2021/04/26 17:46:30;;;;;;;14.90;7.05;;;;;;;;;;4880300;29;20037;-72
2021/04/26 17:48:56;;;;;;;9.27;4.93;;;;;;;;;;4895134;29;20027;-77
2021/04/26 17:51:23;;;;;;;9.52;4.28;;;;;;;;;;4897189;29;20051;-76
2021/04/26 17:53:49;;;;;;;17.27;7.88;;;;;;;;;;4896560;29;22008;-77
2021/04/26 17:56:16;;;;;;;12.65;5.82;;;;;;;;;;4896610;29;20103;-76
2021/04/26 17:58:42;;;;;;;13.32;5.63;;;;;;;;;;4895018;29;20051;-72
2021/04/26 18:01:09;;;;;;;14.80;6.57;;;;;;;;;;4896218;29;20045;-76
2021/04/26 18:03:35;;;;;;;14.07;5.78;;;;;;;;;;4893770;29;20040;-72
2021/04/26 18:06:01;;;;;;;14.05;5.00;;;;;;;;;;4896666;29;20028;-79
2021/04/26 18:08:27;;;;;;;13.93;5.57;;;;;;;;;;4897280;29;20032;-78
2021/04/26 18:10:54;;;;;;;17.80;7.13;;;;;;;;;;4905043;29;20079;-76
2021/04/26 18:13:20;;;;;;;13.45;6.55;;;;;;;;;;4903864;29;20040;-62
2021/04/26 18:15:46;;;;;;;11.60;5.50;;;;;;;;;;4893501;29;20041;-80
2021/04/26 18:18:12;;;;;;;11.63;5.30;;;;;;;;;;4890388;29;20793;-79
2021/04/26 18:20:38;;;;;;;19.60;7.30;;;;;;;;;;4896256;29;20796;-66
2021/04/26 18:23:05;;;;;;;10.15;4.50;;;;;;;;;;4895991;29;20041;-74
2021/04/26 18:25:32;;;;;;;15.95;6.38;;;;;;;;;;4879283;29;20025;-77
2021/04/26 18:27:58;;;;;;;13.90;5.72;;;;;;;;;;4891808;29;20047;-78
2021/04/26 18:30:24;;;;;;;12.50;4.35;;;;;;;;;;4887813;29;20150;-77
2021/04/26 18:32:50;;;;;;;12.55;7.03;;;;;;;;;;4895861;29;20036;-75
2021/04/26 18:35:18;;;;;;;13.07;4.72;;;;;;;;;;4900382;29;20388;-69
2021/04/26 18:37:44;;;;;;;17.60;6.28;;;;;;;;;;4914577;29;20039;-60
2021/04/26 18:40:10;;;;;;;12.63;4.72;;;;;;;;;;4913567;29;20044;-66
2021/04/26 18:42:39;;;;;;;10.52;4.80;;;;;;;;;;4914655;29;20493;-69
2021/04/26 18:45:06;;;;;;;13.10;7.03;;;;;;;;;;4914345;29;20488;-65
2021/04/26 18:47:32;;;;;;;12.65;4.95;;;;;;;;;;4913930;29;20028;-75
2021/04/26 18:49:58;;;;;;;12.10;6.18;;;;;;;;;;4914222;29;20085;-71
2021/04/26 18:52:24;;;;;;;13.02;7.10;;;;;;;;;;4914267;29;20115;-80
2021/04/26 18:54:50;;;;;;;13.00;5.82;;;;;;;;;;4913166;29;20511;-70
2021/04/26 18:57:16;;;;;;;16.08;7.65;;;;;;;;;;4914550;29;20461;-83
2021/04/26 18:59:42;;;;;;;13.07;6.45;;;;;;;;;;4915047;29;20036;-79
2021/04/26 19:02:08;;;;;;;13.05;5.43;;;;;;;;;;4914631;29;20024;-78
2021/04/26 19:04:37;;;;;;;9.48;3.97;;;;;;;;;;4913942;29;20024;-71
2021/04/26 19:07:03;;;;;;;11.98;5.10;;;;;;;;;;4914012;29;20028;-77
2021/04/26 19:09:29;;;;;;;11.60;4.28;;;;;;;;;;4914050;29;20044;-71
2021/04/26 19:11:56;;;;;;;13.05;5.25;;;;;;;;;;4913880;29;20028;-79
2021/04/26 19:14:22;;;;;;;11.50;3.85;;;;;;;;;;4914270;29;20393;-73
2021/04/26 19:16:49;;;;;;;8.05;4.13;;;;;;;;;;4912820;29;20036;-71
2021/04/26 19:19:15;;;;;;;10.85;4.80;;;;;;;;;;4913886;29;20028;-82
2021/04/26 19:21:41;;;;;;;7.95;4.10;;;;;;;;;;4913590;29;20051;-69
2021/04/26 19:24:07;;;;;;;8.23;4.13;;;;;;;;;;4913557;29;20040;-76
2021/04/26 19:26:34;;;;;;;10.32;4.35;;;;;;;;;;4913164;29;20069;-73
2021/04/26 19:29:00;;;;;;;10.20;4.47;;;;;;;;;;4912140;29;20043;-77
2021/04/26 19:31:27;;;;;;;9.65;4.05;;;;;;;;;;4913708;29;20508;-66
2021/04/26 19:33:53;;;;;;;12.02;4.93;;;;;;;;;;4912579;29;20042;-69
2021/04/26 19:36:19;;;;;;;10.80;4.97;;;;;;;;;;4913490;29;20024;-76
2021/04/26 19:38:45;;;;;;;11.18;4.78;;;;;;;;;;4913514;29;20160;-62
2021/04/26 19:41:12;;;;;;;9.63;3.80;;;;;;;;;;4913162;29;20508;-75
2021/04/26 19:43:38;;;;;;;8.30;4.43;;;;;;;;;;4897672;29;20029;-73
2021/04/26 19:46:04;;;;;;;8.60;3.53;;;;;;;;;;4877780;29;20043;-67
2021/04/26 19:48:30;;;;;;;9.50;3.83;;;;;;;;;;4903707;29;20024;-67
2021/04/26 19:50:57;;;;;;;9.88;4.45;;;;;;;;;;4912868;29;20059;-73
2021/04/26 19:53:24;;;;;;;8.93;4.05;;;;;;;;;;4897815;29;20088;-68
2021/04/26 19:55:50;;;;;;;10.10;4.97;;;;;;;;;;4894048;29;20104;-76
2021/04/26 19:58:16;;;;;;;10.77;4.90;;;;;;;;;;4898636;29;20032;-60
2021/04/26 20:00:43;;;;;;;8.70;4.90;;;;;;;;;;4894741;29;20409;-72
2021/04/26 20:03:10;;;;;;;12.50;5.07;;;;;;;;;;4889067;29;20039;-73
2021/04/26 20:05:36;;;;;;;9.63;5.35;;;;;;;;;;4894425;29;20031;-73
2021/04/26 20:08:02;;;;;;;11.95;4.55;;;;;;;;;;4893350;29;20035;-74